sensor_id;sensor_type;location;lat;lon;timestamp;pressure;altitude;pressure_sealevel;temperature;humidity
50125;BME280;36023;48.670;6.184;2023-01-27T00:00:26;99348.56;;;13.41;39.55
50125;BME280;36023;48.670;6.184;2023-01-27T00:02:51;99356.34;;;13.41;39.69
50125;BME280;36023;48.670;6.184;2023-01-27T00:05:17;99348.59;;;13.39;39.56
50125;BME280;36023;48.670;6.184;2023-01-27T00:07:43;99342.53;;;13.38;39.61
50125;BME280;36023;48.670;6.184;2023-01-27T00:10:21;99353.81;;;13.37;39.66
50125;BME280;36023;48.670;6.184;2023-01-27T00:12:48;99340.91;;;13.34;39.43
50125;BME280;36023;48.670;6.184;2023-01-27T00:15:33;99338.25;;;13.36;39.60
50125;BME280;36023;48.670;6.184;2023-01-27T00:17:59;99334.81;;;13.35;39.68
50125;BME280;36023;48.670;6.184;2023-01-27T00:20:25;99330.50;;;13.34;39.59
50125;BME280;36023;48.670;6.184;2023-01-27T00:23:18;99323.59;;;13.33;39.61
50125;BME280;36023;48.670;6.184;2023-01-27T00:26:05;99323.59;;;13.33;39.59
50125;BME280;36023;48.670;6.184;2023-01-27T00:28:34;99321.03;;;13.32;39.54
50125;BME280;36023;48.670;6.184;2023-01-27T00:31:01;99320.19;;;13.31;39.55
50125;BME280;36023;48.670;6.184;2023-01-27T00:33:27;99323.66;;;13.30;39.59
50125;BME280;36023;48.670;6.184;2023-01-27T00:36:03;99326.25;;;13.30;39.64
50125;BME280;36023;48.670;6.184;2023-01-27T00:38:31;99322.84;;;13.28;39.60
50125;BME280;36023;48.670;6.184;2023-01-27T00:40:57;99322.00;;;13.28;39.50
50125;BME280;36023;48.670;6.184;2023-01-27T00:43:41;99319.41;;;13.28;39.51
50125;BME280;36023;48.670;6.184;2023-01-27T00:46:08;99327.22;;;13.28;39.56
50125;BME280;36023;48.670;6.184;2023-01-27T00:48:35;99323.75;;;13.27;39.39
50125;BME280;36023;48.670;6.184;2023-01-27T00:51:02;99318.59;;;13.26;39.63
50125;BME280;36023;48.670;6.184;2023-01-27T00:53:27;99328.16;;;13.25;39.66
50125;BME280;36023;48.670;6.184;2023-01-27T00:55:54;99324.69;;;13.25;39.50
50125;BME280;36023;48.670;6.184;2023-01-27T00:58:23;99316.06;;;13.24;39.56
50125;BME280;36023;48.670;6.184;2023-01-27T01:00:52;99316.94;;;13.23;39.57
50125;BME280;36023;48.670;6.184;2023-01-27T01:03:18;99315.19;;;13.24;39.49
50125;BME280;36023;48.670;6.184;2023-01-27T01:05:43;99316.94;;;13.23;39.27
50125;BME280;36023;48.670;6.184;2023-01-27T01:08:09;99314.38;;;13.22;39.45
50125;BME280;36023;48.670;6.184;2023-01-27T01:10:37;99318.72;;;13.21;39.39
50125;BME280;36023;48.670;6.184;2023-01-27T01:13:05;99310.06;;;13.21;39.43
50125;BME280;36023;48.670;6.184;2023-01-27T01:15:36;99306.59;;;13.20;39.33
50125;BME280;36023;48.670;6.184;2023-01-27T01:18:03;99317.00;;;13.20;39.47
50125;BME280;36023;48.670;6.184;2023-01-27T01:20:30;99310.06;;;13.19;39.40
50125;BME280;36023;48.670;6.184;2023-01-27T01:22:56;99310.97;;;13.20;39.46
50125;BME280;36023;48.670;6.184;2023-01-27T01:25:23;99306.63;;;13.19;39.23
50125;BME280;36023;48.670;6.184;2023-01-27T01:27:52;99305.78;;;13.18;39.58
50125;BME280;36023;48.670;6.184;2023-01-27T01:30:19;99304.91;;;13.18;39.47
50125;BME280;36023;48.670;6.184;2023-01-27T01:32:46;99308.38;;;13.18;39.30
50125;BME280;36023;48.670;6.184;2023-01-27T01:35:12;99304.91;;;13.18;39.50
50125;BME280;36023;48.670;6.184;2023-01-27T01:37:38;99316.19;;;13.18;39.42
50125;BME280;36023;48.670;6.184;2023-01-27T01:40:05;99317.94;;;13.18;39.39
50125;BME280;36023;48.670;6.184;2023-01-27T01:42:58;99305.81;;;13.17;39.45
50125;BME280;36023;48.670;6.184;2023-01-27T01:48:11;99310.16;;;13.16;39.50
50125;BME280;36023;48.670;6.184;2023-01-27T01:50:39;99312.78;;;13.16;39.43
50125;BME280;36023;48.670;6.184;2023-01-27T01:53:08;99308.47;;;13.15;39.41
50125;BME280;36023;48.670;6.184;2023-01-27T01:55:39;99301.53;;;13.16;39.46
50125;BME280;36023;48.670;6.184;2023-01-27T01:58:07;99297.19;;;13.15;39.36
50125;BME280;36023;48.670;6.184;2023-01-27T02:00:34;99295.47;;;13.15;39.63
50125;BME280;36023;48.670;6.184;2023-01-27T02:03:01;99290.25;;;13.15;39.49
50125;BME280;36023;48.670;6.184;2023-01-27T02:05:36;99292.88;;;13.15;39.44
50125;BME280;36023;48.670;6.184;2023-01-27T02:08:16;99287.69;;;13.14;39.44
50125;BME280;36023;48.670;6.184;2023-01-27T02:10:45;99288.53;;;13.14;39.42
50125;BME280;36023;48.670;6.184;2023-01-27T02:13:11;99287.69;;;13.14;39.71
50125;BME280;36023;48.670;6.184;2023-01-27T02:15:37;99277.31;;;13.12;39.44
50125;BME280;36023;48.670;6.184;2023-01-27T02:18:04;99279.94;;;13.12;39.52
50125;BME280;36023;48.670;6.184;2023-01-27T02:20:39;99280.81;;;13.11;39.49
50125;BME280;36023;48.670;6.184;2023-01-27T02:23:26;99279.94;;;13.12;39.41
50125;BME280;36023;48.670;6.184;2023-01-27T02:28:36;99284.31;;;13.10;39.57
50125;BME280;36023;48.670;6.184;2023-01-27T02:31:01;99280.03;;;13.09;39.58
50125;BME280;36023;48.670;6.184;2023-01-27T02:33:27;99273.06;;;13.09;39.73
50125;BME280;36023;48.670;6.184;2023-01-27T02:36:07;99276.56;;;13.08;39.57
50125;BME280;36023;48.670;6.184;2023-01-27T02:38:41;99267.91;;;13.08;39.59
50125;BME280;36023;48.670;6.184;2023-01-27T02:41:44;99281.78;;;13.08;39.39
50125;BME280;36023;48.670;6.184;2023-01-27T02:44:12;99275.72;;;13.08;39.51
50125;BME280;36023;48.670;6.184;2023-01-27T02:46:38;99280.94;;;13.06;39.77
50125;BME280;36023;48.670;6.184;2023-01-27T02:49:06;99288.75;;;13.06;39.67
50125;BME280;36023;48.670;6.184;2023-01-27T02:51:33;99280.09;;;13.06;39.53
50125;BME280;36023;48.670;6.184;2023-01-27T02:54:01;99277.53;;;13.04;39.45
50125;BME280;36023;48.670;6.184;2023-01-27T02:56:28;99282.69;;;13.06;39.49
50125;BME280;36023;48.670;6.184;2023-01-27T02:58:55;99281.84;;;13.05;39.44
50125;BME280;36023;48.670;6.184;2023-01-27T03:01:27;99282.72;;;13.04;39.60
50125;BME280;36023;48.670;6.184;2023-01-27T03:03:57;99279.28;;;13.04;39.42
50125;BME280;36023;48.670;6.184;2023-01-27T03:06:23;99281.88;;;13.04;39.53
50125;BME280;36023;48.670;6.184;2023-01-27T03:08:49;99278.44;;;13.03;39.58
50125;BME280;36023;48.670;6.184;2023-01-27T03:11:15;99271.53;;;13.02;39.63
50125;BME280;36023;48.670;6.184;2023-01-27T03:14:08;99281.06;;;13.02;39.56
50125;BME280;36023;48.670;6.184;2023-01-27T03:16:35;99288.88;;;13.02;39.59
50125;BME280;36023;48.670;6.184;2023-01-27T03:19:20;99281.97;;;13.01;39.99
50125;BME280;36023;48.670;6.184;2023-01-27T03:21:46;99279.38;;;13.01;39.70
50125;BME280;36023;48.670;6.184;2023-01-27T03:24:15;99288.94;;;13.00;39.83
50125;BME280;36023;48.670;6.184;2023-01-27T03:26:44;99282.88;;;13.00;39.72
50125;BME280;36023;48.670;6.184;2023-01-27T03:29:14;99289.78;;;13.01;39.65
50125;BME280;36023;48.670;6.184;2023-01-27T03:31:59;99287.19;;;13.01;39.53
50125;BME280;36023;48.670;6.184;2023-01-27T03:34:25;99290.69;;;13.00;39.70
50125;BME280;36023;48.670;6.184;2023-01-27T03:36:55;99288.06;;;13.00;39.85
50125;BME280;36023;48.670;6.184;2023-01-27T03:39:40;99282.88;;;13.00;39.74
50125;BME280;36023;48.670;6.184;2023-01-27T03:42:24;99273.34;;;12.99;39.71
50125;BME280;36023;48.670;6.184;2023-01-27T03:45:10;99282.88;;;12.98;39.75
50125;BME280;36023;48.670;6.184;2023-01-27T03:47:56;99278.53;;;12.99;39.92
50125;BME280;36023;48.670;6.184;2023-01-27T03:50:21;99275.94;;;12.99;39.67
50125;BME280;36023;48.670;6.184;2023-01-27T03:53:02;99271.59;;;12.99;39.85
50125;BME280;36023;48.670;6.184;2023-01-27T03:55:32;99262.94;;;12.99;39.78
50125;BME280;36023;48.670;6.184;2023-01-27T03:57:58;99263.84;;;12.98;39.58
50125;BME280;36023;48.670;6.184;2023-01-27T04:00:39;99266.38;;;12.99;39.82
50125;BME280;36023;48.670;6.184;2023-01-27T04:03:05;99283.75;;;12.99;40.06
50125;BME280;36023;48.670;6.184;2023-01-27T04:05:49;99271.63;;;12.98;39.72
50125;BME280;36023;48.670;6.184;2023-01-27T04:08:33;99281.19;;;12.97;39.86
50125;BME280;36023;48.670;6.184;2023-01-27T04:11:03;99281.19;;;12.97;39.79
50125;BME280;36023;48.670;6.184;2023-01-27T04:13:49;99277.75;;;12.97;39.82
50125;BME280;36023;48.670;6.184;2023-01-27T04:16:16;99273.38;;;12.97;39.68
50125;BME280;36023;48.670;6.184;2023-01-27T04:18:42;99269.94;;;12.97;39.81
50125;BME280;36023;48.670;6.184;2023-01-27T04:21:08;99273.38;;;12.97;39.92
50125;BME280;36023;48.670;6.184;2023-01-27T04:23:33;99268.25;;;12.96;39.63
50125;BME280;36023;48.670;6.184;2023-01-27T04:26:00;99270.84;;;12.96;39.82
50125;BME280;36023;48.670;6.184;2023-01-27T04:28:26;99278.59;;;12.97;39.74
50125;BME280;36023;48.670;6.184;2023-01-27T04:30:52;99270.84;;;12.96;39.90
50125;BME280;36023;48.670;6.184;2023-01-27T04:33:17;99276.94;;;12.95;39.86
50125;BME280;36023;48.670;6.184;2023-01-27T04:35:43;99279.53;;;12.95;39.92
50125;BME280;36023;48.670;6.184;2023-01-27T04:38:10;99268.28;;;12.94;39.85
50125;BME280;36023;48.670;6.184;2023-01-27T04:40:36;99276.94;;;12.95;39.84
50125;BME280;36023;48.670;6.184;2023-01-27T04:43:02;99282.13;;;12.95;39.97
50125;BME280;36023;48.670;6.184;2023-01-27T04:45:27;99285.59;;;12.95;39.75
50125;BME280;36023;48.670;6.184;2023-01-27T04:47:55;99280.44;;;12.94;40.00
50125;BME280;36023;48.670;6.184;2023-01-27T04:50:20;99283.94;;;12.93;40.20
50125;BME280;36023;48.670;6.184;2023-01-27T04:52:46;99281.31;;;12.93;39.98
50125;BME280;36023;48.670;6.184;2023-01-27T04:55:12;99283.94;;;12.93;39.90
50125;BME280;36023;48.670;6.184;2023-01-27T04:57:38;99283.03;;;12.94;39.83
50125;BME280;36023;48.670;6.184;2023-01-27T05:00:05;99276.16;;;12.91;39.93
50125;BME280;36023;48.670;6.184;2023-01-27T05:02:31;99280.47;;;12.92;40.03
50125;BME280;36023;48.670;6.184;2023-01-27T05:04:57;99279.59;;;12.92;39.93
50125;BME280;36023;48.670;6.184;2023-01-27T05:07:23;99281.34;;;12.91;40.06
50125;BME280;36023;48.670;6.184;2023-01-27T05:09:48;99283.09;;;12.91;39.99
50125;BME280;36023;48.670;6.184;2023-01-27T05:12:14;99281.34;;;12.91;39.98
50125;BME280;36023;48.670;6.184;2023-01-27T05:14:40;99283.09;;;12.91;40.00
50125;BME280;36023;48.670;6.184;2023-01-27T05:17:06;99288.28;;;12.91;40.12
50125;BME280;36023;48.670;6.184;2023-01-27T05:19:32;99284.00;;;12.90;40.05
50125;BME280;36023;48.670;6.184;2023-01-27T05:21:57;99287.44;;;12.90;39.96
50125;BME280;36023;48.670;6.184;2023-01-27T05:24:24;99290.09;;;12.89;40.02
50125;BME280;36023;48.670;6.184;2023-01-27T05:26:51;99294.38;;;12.90;40.05
50125;BME280;36023;48.670;6.184;2023-01-27T05:29:19;99292.69;;;12.89;39.91
50125;BME280;36023;48.670;6.184;2023-01-27T05:31:45;99293.59;;;12.88;39.98
50125;BME280;36023;48.670;6.184;2023-01-27T05:34:10;99293.59;;;12.88;39.95
50125;BME280;36023;48.670;6.184;2023-01-27T05:36:36;99295.28;;;12.89;40.14
50125;BME280;36023;48.670;6.184;2023-01-27T05:39:02;99296.19;;;12.88;40.36
50125;BME280;36023;48.670;6.184;2023-01-27T05:41:29;99293.53;;;12.89;40.49
50125;BME280;36023;48.670;6.184;2023-01-27T05:43:57;99298.63;;;12.94;40.46
50125;BME280;36023;48.670;6.184;2023-01-27T05:46:27;99294.97;;;13.01;40.53
50125;BME280;36023;48.670;6.184;2023-01-27T05:48:56;99297.28;;;13.11;40.39
50125;BME280;36023;48.670;6.184;2023-01-27T05:51:23;99304.00;;;13.20;40.55
50125;BME280;36023;48.670;6.184;2023-01-27T05:53:49;99300.31;;;13.29;40.34
50125;BME280;36023;48.670;6.184;2023-01-27T05:56:18;99307.91;;;13.36;40.43
50125;BME280;36023;48.670;6.184;2023-01-27T05:58:44;99316.34;;;13.45;40.18
50125;BME280;36023;48.670;6.184;2023-01-27T06:01:15;99315.28;;;13.52;40.08
50125;BME280;36023;48.670;6.184;2023-01-27T06:03:43;99322.91;;;13.58;40.14
50125;BME280;36023;48.670;6.184;2023-01-27T06:06:11;99323.59;;;13.64;40.08
50125;BME280;36023;48.670;6.184;2023-01-27T06:08:38;99315.63;;;13.69;39.81
50125;BME280;36023;48.670;6.184;2023-01-27T06:11:04;99325.88;;;13.75;39.88
50125;BME280;36023;48.670;6.184;2023-01-27T06:13:31;99329.22;;;13.80;39.89
50125;BME280;36023;48.670;6.184;2023-01-27T06:16:02;99325.59;;;13.84;39.73
50125;BME280;36023;48.670;6.184;2023-01-27T06:18:28;99325.44;;;13.90;39.65
50125;BME280;36023;48.670;6.184;2023-01-27T06:21:01;99330.56;;;13.93;39.53
50125;BME280;36023;48.670;6.184;2023-01-27T06:23:28;99333.91;;;13.97;39.65
50125;BME280;36023;48.670;6.184;2023-01-27T06:25:55;99332.06;;;14.01;39.41
50125;BME280;36023;48.670;6.184;2023-01-27T06:28:24;99325.88;;;14.05;39.26
50125;BME280;36023;48.670;6.184;2023-01-27T06:30:51;99335.31;;;14.09;39.72
50125;BME280;36023;48.670;6.184;2023-01-27T06:33:17;99336.97;;;14.11;39.29
50125;BME280;36023;48.670;6.184;2023-01-27T06:35:43;99329.91;;;14.15;39.23
50125;BME280;36023;48.670;6.184;2023-01-27T06:38:10;99323.78;;;14.17;39.17
50125;BME280;36023;48.670;6.184;2023-01-27T06:40:39;99329.72;;;14.21;39.20
50125;BME280;36023;48.670;6.184;2023-01-27T06:43:10;99332.25;;;14.24;39.11
50125;BME280;36023;48.670;6.184;2023-01-27T06:45:36;99333.06;;;14.26;38.99
50125;BME280;36023;48.670;6.184;2023-01-27T06:48:04;99339.06;;;14.28;39.09
50125;BME280;36023;48.670;6.184;2023-01-27T06:50:29;99339.78;;;14.32;39.00
50125;BME280;36023;48.670;6.184;2023-01-27T06:53:00;99339.78;;;14.33;39.05
50125;BME280;36023;48.670;6.184;2023-01-27T06:55:29;99346.69;;;14.34;38.92
50125;BME280;36023;48.670;6.184;2023-01-27T06:57:55;99345.72;;;14.37;38.87
50125;BME280;36023;48.670;6.184;2023-01-27T07:00:21;99342.22;;;14.38;38.76
50125;BME280;36023;48.670;6.184;2023-01-27T07:02:47;99343.06;;;14.38;38.87
50125;BME280;36023;48.670;6.184;2023-01-27T07:05:14;99340.44;;;14.40;38.68
50125;BME280;36023;48.670;6.184;2023-01-27T07:07:40;99343.00;;;14.41;38.72
50125;BME280;36023;48.670;6.184;2023-01-27T07:10:06;99349.06;;;14.42;38.79
50125;BME280;36023;48.670;6.184;2023-01-27T07:12:32;99347.25;;;14.44;38.75
50125;BME280;36023;48.670;6.184;2023-01-27T07:15:06;99359.38;;;14.45;38.69
50125;BME280;36023;48.670;6.184;2023-01-27T07:17:32;99348.94;;;14.46;38.75
50125;BME280;36023;48.670;6.184;2023-01-27T07:19:58;99355.00;;;14.47;38.78
50125;BME280;36023;48.670;6.184;2023-01-27T07:22:24;99359.31;;;14.48;38.87
50125;BME280;36023;48.670;6.184;2023-01-27T07:24:49;99369.69;;;14.49;38.62
50125;BME280;36023;48.670;6.184;2023-01-27T07:27:16;99361.78;;;14.53;38.78
50125;BME280;36023;48.670;6.184;2023-01-27T07:29:41;99365.22;;;14.53;38.63
50125;BME280;36023;48.670;6.184;2023-01-27T07:32:08;99377.34;;;14.56;38.90
50125;BME280;36023;48.670;6.184;2023-01-27T07:34:34;99380.72;;;14.58;38.85
50125;BME280;36023;48.670;6.184;2023-01-27T07:37:00;99386.69;;;14.61;39.45
50125;BME280;36023;48.670;6.184;2023-01-27T07:39:26;99387.34;;;14.68;39.86
50125;BME280;36023;48.670;6.184;2023-01-27T07:41:52;99394.13;;;14.73;40.48
50125;BME280;36023;48.670;6.184;2023-01-27T07:44:19;99391.34;;;14.80;40.85
50125;BME280;36023;48.670;6.184;2023-01-27T07:46:46;99386.00;;;14.83;41.40
50125;BME280;36023;48.670;6.184;2023-01-27T07:49:11;99388.56;;;14.84;41.94
50125;BME280;36023;48.670;6.184;2023-01-27T07:51:37;99399.78;;;14.86;42.09
50125;BME280;36023;48.670;6.184;2023-01-27T07:54:04;99391.94;;;14.88;42.38
50125;BME280;36023;48.670;6.184;2023-01-27T07:56:30;99397.09;;;14.89;42.77
50125;BME280;36023;48.670;6.184;2023-01-27T07:58:57;99401.47;;;14.89;42.92
50125;BME280;36023;48.670;6.184;2023-01-27T08:01:23;99398.06;;;14.87;43.15
50125;BME280;36023;48.670;6.184;2023-01-27T08:03:49;99398.06;;;14.87;43.21
50125;BME280;36023;48.670;6.184;2023-01-27T08:06:16;99395.47;;;14.87;43.45
50125;BME280;36023;48.670;6.184;2023-01-27T08:08:41;99402.41;;;14.86;43.28
50125;BME280;36023;48.670;6.184;2023-01-27T08:11:09;99396.38;;;14.84;43.65
50125;BME280;36023;48.670;6.184;2023-01-27T08:13:36;99400.81;;;14.82;43.62
50125;BME280;36023;48.670;6.184;2023-01-27T08:16:03;99405.28;;;14.79;43.62
50125;BME280;36023;48.670;6.184;2023-01-27T08:18:30;99407.97;;;14.75;43.80
50125;BME280;36023;48.670;6.184;2023-01-27T08:21:02;99408.94;;;14.73;43.91
50125;BME280;36023;48.670;6.184;2023-01-27T08:23:28;99401.19;;;14.70;43.91
50125;BME280;36023;48.670;6.184;2023-01-27T08:25:56;99406.50;;;14.67;43.62
50125;BME280;36023;48.670;6.184;2023-01-27T08:28:25;99406.56;;;14.65;44.01
50125;BME280;36023;48.670;6.184;2023-01-27T08:30:51;99410.16;;;14.61;44.04
50125;BME280;36023;48.670;6.184;2023-01-27T08:33:22;99398.13;;;14.57;44.14
50125;BME280;36023;48.670;6.184;2023-01-27T08:35:49;99399.06;;;14.55;44.20
50125;BME280;36023;48.670;6.184;2023-01-27T08:38:17;99397.34;;;14.54;44.32
50125;BME280;36023;48.670;6.184;2023-01-27T08:40:44;99410.38;;;14.54;44.15
50125;BME280;36023;48.670;6.184;2023-01-27T08:43:11;99415.66;;;14.52;44.32
50125;BME280;36023;48.670;6.184;2023-01-27T08:45:37;99414.00;;;14.49;44.25
50125;BME280;36023;48.670;6.184;2023-01-27T08:48:04;99415.66;;;14.52;44.45
50125;BME280;36023;48.670;6.184;2023-01-27T08:50:32;99414.69;;;14.55;44.38
50125;BME280;36023;48.670;6.184;2023-01-27T08:52:57;99417.28;;;14.56;44.52
50125;BME280;36023;48.670;6.184;2023-01-27T08:55:28;99424.09;;;14.60;44.51
50125;BME280;36023;48.670;6.184;2023-01-27T08:57:54;99424.88;;;14.62;44.37
50125;BME280;36023;48.670;6.184;2023-01-27T09:00:20;99421.34;;;14.65;44.42
50125;BME280;36023;48.670;6.184;2023-01-27T09:02:46;99429.97;;;14.67;44.43
50125;BME280;36023;48.670;6.184;2023-01-27T09:05:12;99430.75;;;14.69;44.33
50125;BME280;36023;48.670;6.184;2023-01-27T09:07:37;99432.47;;;14.70;44.15
50125;BME280;36023;48.670;6.184;2023-01-27T09:10:03;99436.81;;;14.71;44.25
50125;BME280;36023;48.670;6.184;2023-01-27T09:12:29;99436.56;;;14.79;44.63
50125;BME280;36023;48.670;6.184;2023-01-27T09:14:55;99437.38;;;14.81;44.18
50125;BME280;36023;48.670;6.184;2023-01-27T09:17:25;99447.84;;;14.79;44.01
50125;BME280;36023;48.670;6.184;2023-01-27T09:19:51;99440.09;;;14.76;44.14
50125;BME280;36023;48.670;6.184;2023-01-27T09:22:17;99448.88;;;14.73;43.84
50125;BME280;36023;48.670;6.184;2023-01-27T09:24:43;99451.53;;;14.72;43.87
50125;BME280;36023;48.670;6.184;2023-01-27T09:27:10;99455.13;;;14.68;43.87
50125;BME280;36023;48.670;6.184;2023-01-27T09:29:36;99448.31;;;14.64;43.78
50125;BME280;36023;48.670;6.184;2023-01-27T09:32:04;99448.41;;;14.61;43.93
50125;BME280;36023;48.670;6.184;2023-01-27T09:34:30;99453.75;;;14.56;43.64
50125;BME280;36023;48.670;6.184;2023-01-27T09:37:03;99451.28;;;14.52;43.60
50125;BME280;36023;48.670;6.184;2023-01-27T09:39:31;99458.38;;;14.46;43.90
50125;BME280;36023;48.670;6.184;2023-01-27T09:45:21;99459.28;;;14.44;43.85
50125;BME280;36023;48.670;6.184;2023-01-27T09:56:11;99469.44;;;14.55;44.69
50125;BME280;36023;48.670;6.184;2023-01-27T10:04:12;99460.44;;;14.65;45.02
50125;BME280;36023;48.670;6.184;2023-01-27T10:09:36;99452.47;;;14.69;45.28
50125;BME280;36023;48.670;6.184;2023-01-27T10:20:31;99464.75;;;14.66;45.23
50125;BME280;36023;48.670;6.184;2023-01-27T10:23:30;99470.88;;;14.65;45.14
50125;BME280;36023;48.670;6.184;2023-01-27T10:26:25;99475.25;;;14.63;45.19
50125;BME280;36023;48.670;6.184;2023-01-27T10:29:09;99470.09;;;14.61;45.09
50125;BME280;36023;48.670;6.184;2023-01-27T10:31:42;99477.97;;;14.60;45.05
50125;BME280;36023;48.670;6.184;2023-01-27T10:34:25;99473.72;;;14.57;45.11
50125;BME280;36023;48.670;6.184;2023-01-27T10:37:06;99472.94;;;14.54;44.97
50125;BME280;36023;48.670;6.184;2023-01-27T10:39:44;99473.03;;;14.51;44.97
50125;BME280;36023;48.670;6.184;2023-01-27T10:50:19;99459.41;;;14.39;44.97
50125;BME280;36023;48.670;6.184;2023-01-27T10:55:59;99456.13;;;14.34;45.01
50125;BME280;36023;48.670;6.184;2023-01-27T11:00:54;99465.53;;;14.38;44.92
50125;BME280;36023;48.670;6.184;2023-01-27T11:03:32;99462.91;;;14.40;44.79
50125;BME280;36023;48.670;6.184;2023-01-27T11:06:03;99460.31;;;14.40;44.86
50125;BME280;36023;48.670;6.184;2023-01-27T11:08:37;99464.56;;;14.42;44.78
50125;BME280;36023;48.670;6.184;2023-01-27T11:11:07;99457.53;;;14.44;44.72
50125;BME280;36023;48.670;6.184;2023-01-27T11:14:02;99464.41;;;14.48;44.52
50125;BME280;36023;48.670;6.184;2023-01-27T11:16:35;99458.31;;;14.49;44.61
50125;BME280;36023;48.670;6.184;2023-01-27T11:19:13;99462.50;;;14.54;44.43
50125;BME280;36023;48.670;6.184;2023-01-27T11:21:41;99458.16;;;14.54;44.36
50125;BME280;36023;48.670;6.184;2023-01-27T11:24:18;99458.13;;;14.56;44.25
50125;BME280;36023;48.670;6.184;2023-01-27T11:26:52;99454.69;;;14.54;44.13
50125;BME280;36023;48.670;6.184;2023-01-27T11:29:47;99448.56;;;14.55;43.96
50125;BME280;36023;48.670;6.184;2023-01-27T11:35:15;99457.34;;;14.52;43.95
50125;BME280;36023;48.670;6.184;2023-01-27T11:37:46;99457.44;;;14.49;43.89
50125;BME280;36023;48.670;6.184;2023-01-27T11:40:31;99449.63;;;14.49;43.70
50125;BME280;36023;48.670;6.184;2023-01-27T11:42:59;99446.19;;;14.47;43.76
50125;BME280;36023;48.670;6.184;2023-01-27T11:45:27;99442.75;;;14.45;43.76
50125;BME280;36023;48.670;6.184;2023-01-27T11:47:58;99435.84;;;14.44;43.81
50125;BME280;36023;48.670;6.184;2023-01-27T11:50:29;99438.44;;;14.44;43.88
50125;BME280;36023;48.670;6.184;2023-01-27T11:53:19;99439.28;;;14.46;44.03
50125;BME280;36023;48.670;6.184;2023-01-27T11:55:51;99439.28;;;14.46;43.92
50125;BME280;36023;48.670;6.184;2023-01-27T11:58:29;99442.72;;;14.48;44.04
50125;BME280;36023;48.670;6.184;2023-01-27T12:01:02;99427.03;;;14.49;44.24
50125;BME280;36023;48.670;6.184;2023-01-27T12:03:45;99437.28;;;14.54;44.30
50125;BME280;36023;48.670;6.184;2023-01-27T12:06:32;99431.16;;;14.57;44.34
50125;BME280;36023;48.670;6.184;2023-01-27T12:08:59;99424.13;;;14.59;44.47
50125;BME280;36023;48.670;6.184;2023-01-27T12:11:30;99437.13;;;14.60;44.32
50125;BME280;36023;48.670;6.184;2023-01-27T12:14:03;99422.38;;;14.59;44.33
50125;BME280;36023;48.670;6.184;2023-01-27T12:16:50;99430.25;;;14.58;44.36
50125;BME280;36023;48.670;6.184;2023-01-27T12:19:33;99426.81;;;14.57;44.37
50125;BME280;36023;48.670;6.184;2023-01-27T12:22:05;99415.53;;;14.55;44.26
50125;BME280;36023;48.670;6.184;2023-01-27T12:24:37;99416.44;;;14.54;44.08
50125;BME280;36023;48.670;6.184;2023-01-27T12:27:20;99415.66;;;14.52;44.14
50125;BME280;36023;48.670;6.184;2023-01-27T12:29:52;99420.13;;;14.48;44.06
50125;BME280;36023;48.670;6.184;2023-01-27T12:32:26;99414.09;;;14.45;43.87
50125;BME280;36023;48.670;6.184;2023-01-27T12:34:54;99408.19;;;14.40;43.78
50125;BME280;36023;48.670;6.184;2023-01-27T12:37:26;99416.09;;;14.37;43.80
50125;BME280;36023;48.670;6.184;2023-01-27T12:39:58;99411.88;;;14.33;43.76
50125;BME280;36023;48.670;6.184;2023-01-27T12:42:41;99417.16;;;14.30;43.56
50125;BME280;36023;48.670;6.184;2023-01-27T12:45:26;99416.31;;;14.29;43.71
50125;BME280;36023;48.670;6.184;2023-01-27T12:47:58;99408.50;;;14.29;43.74
50125;BME280;36023;48.670;6.184;2023-01-27T12:50:34;99408.41;;;14.32;43.99
50125;BME280;36023;48.670;6.184;2023-01-27T12:55:34;99409.06;;;14.39;44.07
50125;BME280;36023;48.670;6.184;2023-01-27T12:58:01;99414.94;;;14.47;44.28
50125;BME280;36023;48.670;6.184;2023-01-27T13:00:27;99409.47;;;14.55;44.48
50125;BME280;36023;48.670;6.184;2023-01-27T13:03:05;99405.00;;;14.60;44.53
50125;BME280;36023;48.670;6.184;2023-01-27T13:05:36;99410.09;;;14.63;44.62
50125;BME280;36023;48.670;6.184;2023-01-27T13:08:03;99421.44;;;14.62;44.77
50125;BME280;36023;48.670;6.184;2023-01-27T13:10:29;99416.22;;;14.62;44.81
50125;BME280;36023;48.670;6.184;2023-01-27T13:12:57;99419.72;;;14.61;44.90
50125;BME280;36023;48.670;6.184;2023-01-27T13:15:25;99414.56;;;14.59;44.88
50125;BME280;36023;48.670;6.184;2023-01-27T13:17:55;99416.44;;;14.56;44.98
50125;BME280;36023;48.670;6.184;2023-01-27T13:20:30;99420.81;;;14.54;44.88
50125;BME280;36023;48.670;6.184;2023-01-27T13:23:38;99418.38;;;14.49;44.92
50125;BME280;36023;48.670;6.184;2023-01-27T13:31:06;99424.69;;;14.40;44.76
50125;BME280;36023;48.670;6.184;2023-01-27T13:33:48;99416.09;;;14.37;44.75
50125;BME280;36023;48.670;6.184;2023-01-27T13:39:06;99422.41;;;14.28;44.45
50125;BME280;36023;48.670;6.184;2023-01-27T13:41:42;99425.13;;;14.25;44.31
50125;BME280;36023;48.670;6.184;2023-01-27T13:44:19;99423.50;;;14.21;44.15
50125;BME280;36023;48.670;6.184;2023-01-27T13:46:50;99431.38;;;14.19;44.31
50125;BME280;36023;48.670;6.184;2023-01-27T13:49:30;99435.78;;;14.16;44.19
50125;BME280;36023;48.670;6.184;2023-01-27T13:51:56;99429.78;;;14.14;44.09
50125;BME280;36023;48.670;6.184;2023-01-27T13:54:22;99435.94;;;14.11;44.21
50125;BME280;36023;48.670;6.184;2023-01-27T14:00:17;99442.13;;;14.07;44.17
50125;BME280;36023;48.670;6.184;2023-01-27T14:11:24;99442.00;;;14.12;44.41
50125;BME280;36023;48.670;6.184;2023-01-27T14:26:04;99432.50;;;14.39;44.02
50125;BME280;36023;48.670;6.184;2023-01-27T14:28:59;99436.69;;;14.44;43.86
50125;BME280;36023;48.670;6.184;2023-01-27T14:35:03;99439.91;;;14.54;43.71
50125;BME280;36023;48.670;6.184;2023-01-27T14:37:43;99445.00;;;14.59;43.53
50125;BME280;36023;48.670;6.184;2023-01-27T14:43:33;99437.91;;;14.64;43.46
50125;BME280;36023;48.670;6.184;2023-01-27T14:45:45;99436.94;;;14.66;43.37
50125;BME280;36023;48.670;6.184;2023-01-27T14:59:12;99450.81;;;14.67;42.99